createdAt,value
2022-11-13T00:00:20.524Z,5.70
2022-11-13T00:03:06.852Z,5.13
2022-11-13T00:06:00.972Z,6.25
2022-11-13T00:08:48.445Z,6.18
2022-11-13T00:11:35.138Z,5.17
2022-11-13T00:14:21.832Z,4.38
2022-11-13T00:17:08.018Z,5.65
2022-11-13T00:19:54.659Z,5.72
2022-11-13T00:22:41.079Z,5.03
2022-11-13T00:25:27.343Z,4.70
2022-11-13T00:28:14.260Z,4.88
2022-11-13T00:31:02.251Z,4.32
2022-11-13T00:34:13.906Z,4.55
2022-11-13T00:36:55.562Z,5.13
2022-11-13T00:39:42.040Z,4.00
2022-11-13T00:42:28.421Z,4.70
2022-11-13T00:45:14.993Z,4.45
2022-11-13T00:48:01.373Z,4.35
2022-11-13T00:50:48.386Z,4.00
2022-11-13T00:53:34.772Z,4.93
2022-11-13T00:56:21.271Z,4.18
2022-11-13T00:59:07.603Z,3.90
2022-11-13T01:01:54.121Z,4.35
2022-11-13T01:04:40.875Z,4.38
2022-11-13T01:07:27.643Z,4.25
2022-11-13T01:10:13.908Z,3.25
2022-11-13T01:13:00.437Z,3.90
2022-11-13T01:15:46.871Z,4.13
2022-11-13T01:18:33.607Z,3.47
2022-11-13T01:21:23.081Z,3.50
2022-11-13T01:24:09.776Z,3.13
2022-11-13T01:26:56.110Z,4.00
2022-11-13T01:29:43.219Z,3.83
2022-11-13T01:32:29.779Z,3.72
2022-11-13T01:35:16.224Z,4.10
2022-11-13T01:38:02.416Z,3.35
2022-11-13T01:40:49.174Z,2.95
2022-11-13T01:43:39.323Z,3.58
2022-11-13T01:46:54.912Z,5.15
2022-11-13T01:49:42.960Z,3.30
2022-11-13T01:52:41.183Z,4.32
2022-11-13T01:55:27.627Z,3.38
2022-11-13T01:58:14.514Z,3.33
2022-11-13T02:01:01.105Z,3.88
2022-11-13T02:03:47.525Z,3.97
2022-11-13T02:06:44.355Z,3.00
2022-11-13T02:10:05.713Z,2.83
2022-11-13T02:12:52.829Z,2.70
2022-11-13T02:15:41.312Z,3.08
2022-11-13T02:18:30.237Z,2.50
2022-11-13T02:21:53.469Z,2.72
2022-11-13T02:24:45.345Z,3.20
2022-11-13T02:27:50.892Z,2.22
2022-11-13T02:30:37.900Z,2.35
2022-11-13T02:33:32.722Z,3.05
2022-11-13T02:36:24.477Z,2.90
2022-11-13T02:39:13.707Z,3.40
2022-11-13T02:42:00.008Z,3.05
2022-11-13T02:44:46.297Z,3.33
2022-11-13T02:47:32.870Z,3.72
2022-11-13T02:50:19.575Z,2.08
2022-11-13T02:53:06.495Z,2.90
2022-11-13T02:55:53.099Z,3.53
2022-11-13T02:58:39.497Z,2.00
2022-11-13T03:01:26.055Z,2.15
2022-11-13T03:04:12.345Z,4.00
2022-11-13T03:06:59.052Z,2.00
2022-11-13T03:09:45.803Z,2.17
2022-11-13T03:12:33.159Z,3.45
2022-11-13T03:15:19.782Z,1.90
2022-11-13T03:18:07.884Z,2.40
2022-11-13T03:20:54.302Z,2.05
2022-11-13T03:23:42.027Z,2.10
2022-11-13T03:26:28.238Z,2.75
2022-11-13T03:29:14.749Z,2.60
2022-11-13T03:32:01.406Z,2.65
2022-11-13T03:34:47.800Z,2.67
2022-11-13T03:37:33.955Z,2.35
2022-11-13T03:40:20.448Z,2.05
2022-11-13T03:43:06.680Z,2.88
2022-11-13T03:45:53.421Z,2.33
2022-11-13T03:48:39.964Z,1.92
2022-11-13T03:51:26.233Z,2.70
2022-11-13T03:54:12.589Z,4.03
2022-11-13T03:56:59.210Z,2.08
2022-11-13T03:59:45.513Z,2.45
2022-11-13T04:02:32.298Z,2.85
2022-11-13T04:05:22.719Z,2.55
2022-11-13T04:08:10.060Z,2.38
2022-11-13T04:10:56.445Z,2.25
2022-11-13T04:13:43.367Z,1.73
2022-11-13T04:16:29.618Z,2.22
2022-11-13T04:19:15.925Z,3.58
2022-11-13T04:22:02.324Z,2.47
2022-11-13T04:24:48.646Z,2.95
2022-11-13T04:27:35.444Z,1.67
2022-11-13T04:30:22.159Z,1.83
2022-11-13T04:33:08.529Z,2.45
2022-11-13T04:35:54.790Z,2.42
2022-11-13T04:38:41.123Z,2.22
2022-11-13T04:41:27.651Z,2.17
2022-11-13T04:44:14.075Z,2.00
2022-11-13T04:47:00.555Z,2.85
2022-11-13T04:49:46.737Z,2.22
2022-11-13T04:52:33.456Z,2.22
2022-11-13T04:55:19.827Z,1.38
2022-11-13T04:58:06.106Z,2.20
2022-11-13T05:00:52.411Z,1.50
2022-11-13T05:03:39.358Z,1.40
2022-11-13T05:06:25.808Z,2.45
2022-11-13T05:09:12.419Z,1.95
2022-11-13T05:11:58.870Z,1.58
2022-11-13T05:14:45.206Z,1.45
2022-11-13T05:17:31.603Z,1.55
2022-11-13T05:20:18.207Z,3.40
2022-11-13T05:23:04.605Z,1.85
2022-11-13T05:25:51.536Z,1.77
2022-11-13T05:28:38.429Z,1.75
2022-11-13T05:31:24.866Z,1.83
2022-11-13T05:34:11.227Z,1.55
2022-11-13T05:36:57.671Z,2.75
2022-11-13T05:39:43.904Z,1.80
2022-11-13T05:42:30.348Z,2.53
2022-11-13T05:45:16.663Z,1.25
2022-11-13T05:48:02.950Z,2.30
2022-11-13T05:50:49.359Z,1.85
2022-11-13T05:53:36.376Z,1.63
2022-11-13T05:56:28.875Z,2.38
2022-11-13T05:59:15.133Z,1.50
2022-11-13T06:02:01.449Z,2.00
2022-11-13T06:04:50.643Z,1.98
2022-11-13T06:07:38.216Z,1.77
2022-11-13T06:10:24.811Z,2.25
2022-11-13T06:13:11.131Z,1.95
2022-11-13T06:16:02.757Z,1.17
2022-11-13T06:18:50.237Z,2.90
2022-11-13T06:21:39.476Z,1.63
2022-11-13T06:24:25.920Z,2.17
2022-11-13T06:27:12.315Z,2.42
2022-11-13T06:29:58.629Z,1.50
2022-11-13T06:32:45.431Z,3.10
2022-11-13T06:35:31.926Z,1.60
2022-11-13T06:38:18.204Z,2.63
2022-11-13T06:41:05.419Z,2.22
2022-11-13T06:43:51.661Z,1.63
2022-11-13T06:46:38.087Z,1.60
2022-11-13T06:49:24.649Z,1.42
2022-11-13T06:52:11.006Z,4.07
2022-11-13T06:54:57.499Z,1.80
2022-11-13T06:57:43.961Z,1.58
2022-11-13T07:00:36.247Z,1.35
2022-11-13T07:03:26.761Z,1.63
2022-11-13T07:06:16.554Z,1.10
2022-11-13T07:09:02.836Z,1.30
2022-11-13T07:11:49.160Z,1.77
2022-11-13T07:14:35.568Z,2.08
2022-11-13T07:17:21.913Z,1.92
2022-11-13T07:20:09.028Z,2.20
2022-11-13T07:25:10.267Z,2.08
2022-11-13T07:27:56.931Z,1.85
2022-11-13T07:30:43.179Z,2.05
2022-11-13T07:33:29.797Z,2.13
2022-11-13T07:36:16.485Z,2.33
2022-11-13T07:39:03.017Z,1.98
2022-11-13T07:41:50.016Z,1.58
2022-11-13T07:47:42.690Z,2.58
2022-11-13T07:50:31.595Z,2.17
2022-11-13T07:53:19.727Z,2.08
2022-11-13T07:56:06.670Z,1.67
2022-11-13T07:58:53.236Z,1.75
2022-11-13T08:01:39.417Z,2.97
2022-11-13T08:04:25.974Z,1.80
2022-11-13T08:07:13.366Z,2.15
2022-11-13T08:10:00.118Z,2.25
2022-11-13T08:12:46.978Z,2.30
2022-11-13T08:15:34.073Z,2.58
2022-11-13T08:18:20.662Z,2.25
2022-11-13T08:21:13.452Z,4.20
2022-11-13T08:24:01.465Z,1.80
2022-11-13T08:26:47.969Z,2.67
2022-11-13T08:29:34.813Z,2.55
2022-11-13T08:32:21.856Z,2.35
2022-11-13T08:35:08.523Z,3.30
2022-11-13T08:37:55.159Z,4.53
2022-11-13T08:40:41.779Z,2.35
2022-11-13T08:43:28.182Z,1.83
2022-11-13T08:46:14.383Z,1.75
2022-11-13T08:49:00.776Z,2.22
2022-11-13T08:51:47.009Z,2.83
2022-11-13T08:54:33.352Z,2.65
2022-11-13T08:57:19.834Z,2.33
2022-11-13T09:00:07.094Z,2.95
2022-11-13T09:02:57.639Z,2.17
2022-11-13T09:05:44.335Z,4.18
2022-11-13T09:08:31.783Z,2.08
2022-11-13T09:11:18.572Z,2.60
2022-11-13T09:14:05.278Z,3.47
2022-11-13T09:16:51.906Z,2.63
2022-11-13T09:19:38.171Z,3.95
2022-11-13T09:22:24.566Z,2.58
2022-11-13T09:25:10.977Z,3.28
2022-11-13T09:27:59.674Z,2.28
2022-11-13T09:30:46.218Z,4.07
2022-11-13T09:33:33.051Z,2.50
2022-11-13T09:36:19.492Z,2.58
2022-11-13T09:39:06.455Z,2.33
2022-11-13T09:42:05.431Z,2.00
2022-11-13T09:45:01.992Z,2.60
2022-11-13T09:47:49.254Z,3.95
2022-11-13T09:50:35.719Z,3.28
2022-11-13T09:53:22.200Z,2.58
2022-11-13T09:56:39.318Z,2.13
2022-11-13T09:59:48.597Z,2.30
2022-11-13T10:02:56.599Z,2.53
2022-11-13T10:09:23.084Z,2.63
2022-11-13T10:12:10.838Z,2.67
2022-11-13T10:15:03.508Z,2.33
2022-11-13T10:17:59.331Z,2.05
2022-11-13T10:20:58.233Z,3.83
2022-11-13T10:23:52.258Z,2.58
2022-11-13T10:26:38.725Z,2.38
2022-11-13T10:29:27.186Z,3.40
2022-11-13T10:32:24.154Z,2.35
2022-11-13T10:35:13.494Z,3.95
2022-11-13T10:38:08.869Z,2.33
2022-11-13T10:41:15.876Z,2.80
2022-11-13T10:44:05.136Z,3.08
2022-11-13T10:46:51.384Z,3.30
2022-11-13T10:49:38.151Z,3.47
2022-11-13T10:52:26.836Z,3.75
2022-11-13T10:55:25.528Z,3.72
2022-11-13T10:58:18.853Z,3.10
2022-11-13T11:01:24.375Z,3.50
2022-11-13T11:04:20.567Z,3.10
2022-11-13T11:07:20.723Z,3.53
2022-11-13T11:10:37.661Z,3.08
2022-11-13T11:13:25.825Z,3.50
2022-11-13T11:16:19.104Z,3.72
2022-11-13T11:19:11.478Z,3.00
2022-11-13T11:22:23.848Z,2.83
2022-11-13T11:25:37.076Z,3.08
2022-11-13T11:28:39.207Z,2.85
2022-11-13T11:31:45.798Z,3.28
2022-11-13T11:34:39.765Z,2.90
2022-11-13T11:37:55.272Z,3.08
2022-11-13T11:40:45.746Z,2.88
2022-11-13T11:43:46.279Z,3.17
2022-11-13T11:46:32.639Z,3.30
2022-11-13T11:49:21.257Z,3.35
2022-11-13T11:52:50.041Z,3.65
2022-11-13T11:55:36.169Z,3.03
2022-11-13T11:59:04.286Z,3.33
2022-11-13T12:02:12.441Z,3.28
2022-11-13T12:05:08.588Z,4.22
2022-11-13T12:08:00.973Z,4.00
2022-11-13T12:10:57.612Z,3.25
2022-11-13T12:14:22.529Z,3.70
2022-11-13T12:17:22.555Z,3.20
2022-11-13T12:20:41.880Z,2.92
2022-11-13T12:24:01.165Z,3.15
2022-11-13T12:26:54.655Z,3.10
2022-11-13T12:30:13.477Z,3.25
2022-11-13T12:33:36.882Z,3.47
2022-11-13T12:36:25.307Z,3.28
2022-11-13T12:39:27.366Z,2.78
2022-11-13T12:42:39.973Z,3.92
2022-11-13T12:45:38.548Z,3.25
2022-11-13T12:48:34.501Z,2.97
2022-11-13T12:51:20.914Z,3.80
2022-11-13T12:54:10.336Z,3.25
2022-11-13T12:57:16.534Z,4.05
2022-11-13T13:00:24.706Z,4.15
2022-11-13T13:03:17.501Z,5.32
2022-11-13T13:06:25.078Z,4.13
2022-11-13T13:09:29.953Z,4.50
2022-11-13T13:13:03.043Z,4.40
2022-11-13T13:16:02.164Z,3.70
2022-11-13T13:18:48.899Z,3.20
2022-11-13T13:21:44.376Z,3.75
2022-11-13T13:24:37.268Z,3.97
2022-11-13T13:27:29.298Z,5.82
2022-11-13T13:30:18.799Z,3.53
2022-11-13T13:33:32.692Z,4.05
2022-11-13T13:36:37.254Z,4.47
2022-11-13T13:39:47.490Z,3.28
2022-11-13T13:43:08.078Z,6.07
2022-11-13T13:46:03.483Z,4.85
2022-11-13T13:48:52.745Z,3.00
2022-11-13T13:51:43.263Z,3.40
2022-11-13T13:54:33.386Z,3.17
2022-11-13T13:57:19.863Z,3.92
2022-11-13T14:00:12.867Z,5.10
2022-11-13T14:02:59.713Z,2.92
2022-11-13T14:05:46.251Z,2.95
2022-11-13T14:08:32.792Z,2.47
2022-11-13T14:11:25.364Z,3.15
2022-11-13T14:16:06.877Z,2.70
2022-11-13T14:19:04.637Z,2.28
2022-11-13T14:21:59.155Z,4.53
2022-11-13T14:24:56.889Z,3.03
2022-11-13T14:27:43.649Z,3.33
2022-11-13T14:30:31.878Z,2.58
2022-11-13T14:33:24.670Z,2.67
2022-11-13T14:36:11.497Z,4.03
2022-11-13T14:38:58.316Z,2.45
2022-11-13T14:41:54.256Z,2.65
2022-11-13T14:44:40.620Z,3.00
2022-11-13T14:47:30.806Z,3.83
2022-11-13T14:50:24.476Z,3.88
2022-11-13T14:53:11.639Z,2.80
2022-11-13T14:56:01.006Z,3.45
2022-11-13T14:58:48.133Z,4.43
2022-11-13T15:01:34.613Z,3.13
2022-11-13T15:04:21.158Z,2.83
2022-11-13T15:07:41.724Z,2.25
2022-11-13T15:10:29.878Z,3.17
2022-11-13T15:13:18.579Z,2.90
2022-11-13T15:16:06.210Z,3.08
2022-11-13T15:19:04.903Z,2.22
2022-11-13T15:22:33.651Z,3.85
2022-11-13T15:24:58.567Z,2.50
2022-11-13T15:27:45.134Z,2.20
2022-11-13T15:30:31.296Z,3.95
2022-11-13T15:33:17.966Z,2.30
2022-11-13T15:36:04.833Z,3.45
2022-11-13T15:38:51.315Z,3.00
2022-11-13T15:41:37.869Z,2.30
2022-11-13T15:44:24.520Z,1.88
2022-11-13T15:47:31.641Z,2.15
2022-11-13T15:50:18.114Z,3.28
2022-11-13T15:53:05.636Z,2.92
2022-11-13T15:55:52.580Z,3.85
2022-11-13T15:58:39.121Z,2.35
2022-11-13T16:01:25.865Z,2.67
2022-11-13T16:04:12.912Z,3.50
2022-11-13T16:06:59.128Z,2.40
2022-11-13T16:09:46.617Z,4.10
2022-11-13T16:12:32.961Z,2.10
2022-11-13T16:15:19.348Z,2.90
2022-11-13T16:18:07.536Z,2.40
2022-11-13T16:20:54.302Z,2.92
2022-11-13T16:23:40.862Z,2.90
2022-11-13T16:26:27.795Z,2.50
2022-11-13T16:29:24.959Z,2.22
2022-11-13T16:32:15.773Z,3.08
2022-11-13T16:35:02.350Z,2.75
2022-11-13T16:37:48.807Z,4.05
2022-11-13T16:40:35.232Z,2.50
2022-11-13T16:43:21.681Z,2.38
2022-11-13T16:46:21.539Z,2.63
2022-11-13T16:49:13.868Z,3.10
2022-11-13T16:52:00.344Z,5.10
2022-11-13T16:54:46.924Z,8.10
2022-11-13T16:57:33.221Z,10.93
2022-11-13T17:00:20.649Z,9.40
2022-11-13T17:03:07.135Z,9.13
2022-11-13T17:05:54.169Z,8.82
2022-11-13T17:08:40.652Z,9.55
2022-11-13T17:11:29.156Z,9.07
2022-11-13T17:17:02.713Z,7.85
2022-11-13T17:19:49.023Z,8.32
2022-11-13T17:22:35.252Z,8.23
2022-11-13T17:25:21.688Z,7.82
2022-11-13T17:28:08.056Z,7.35
2022-11-13T17:30:58.152Z,6.70
2022-11-13T17:33:45.723Z,6.93
2022-11-13T17:36:32.035Z,6.88
2022-11-13T17:39:19.623Z,6.15
2022-11-13T17:42:06.121Z,6.63
2022-11-13T17:44:52.410Z,6.85
2022-11-13T17:47:39.448Z,6.68
2022-11-13T17:50:25.790Z,6.60
2022-11-13T17:53:12.079Z,5.85
2022-11-13T17:56:04.247Z,6.70
2022-11-13T17:58:50.947Z,6.28
2022-11-13T18:01:37.506Z,5.20
2022-11-13T18:04:24.189Z,5.70
2022-11-13T18:07:10.847Z,5.22
2022-11-13T18:09:57.709Z,6.15
2022-11-13T18:12:44.065Z,5.63
2022-11-13T18:15:31.049Z,5.38
2022-11-13T18:18:17.702Z,5.88
2022-11-13T18:21:30.653Z,6.88
2022-11-13T18:24:19.612Z,7.32
2022-11-13T18:27:06.674Z,8.48
2022-11-13T18:29:53.538Z,8.20
2022-11-13T18:32:39.826Z,10.85
2022-11-13T18:35:26.222Z,7.05
2022-11-13T18:38:12.617Z,9.15
2022-11-13T18:41:07.435Z,7.18
2022-11-13T18:43:54.273Z,7.35
2022-11-13T18:46:40.620Z,7.38
2022-11-13T18:49:27.019Z,6.50
2022-11-13T18:52:13.986Z,7.43
2022-11-13T18:55:00.839Z,6.63
2022-11-13T18:57:47.116Z,6.75
2022-11-13T19:00:33.738Z,7.50
2022-11-13T19:03:20.025Z,6.93
2022-11-13T19:06:12.318Z,8.48
2022-11-13T19:09:01.271Z,7.75
2022-11-13T19:11:47.792Z,7.15
2022-11-13T19:14:34.152Z,6.47
2022-11-13T19:17:20.898Z,6.32
2022-11-13T19:20:08.084Z,6.03
2022-11-13T19:22:54.568Z,6.78
2022-11-13T19:25:40.902Z,6.72
2022-11-13T19:28:27.664Z,6.32
2022-11-13T19:31:16.721Z,6.30
2022-11-13T19:34:05.070Z,6.70
2022-11-13T19:36:51.989Z,5.20
2022-11-13T19:39:38.497Z,6.78
2022-11-13T19:42:24.997Z,6.25
2022-11-13T19:45:11.707Z,5.45
2022-11-13T19:47:58.455Z,5.82
2022-11-13T19:50:44.729Z,6.78
2022-11-13T19:53:31.661Z,5.32
2022-11-13T19:56:23.090Z,5.60
2022-11-13T19:59:11.427Z,4.75
2022-11-13T20:01:57.854Z,5.32
2022-11-13T20:04:46.458Z,6.30
2022-11-13T20:10:19.689Z,5.93
2022-11-13T20:13:06.845Z,6.25
2022-11-13T20:15:56.489Z,5.25
2022-11-13T20:18:44.306Z,6.22
2022-11-13T20:21:31.594Z,6.05
2022-11-13T20:24:18.020Z,5.63
2022-11-13T20:27:04.827Z,6.47
2022-11-13T20:29:51.359Z,6.03
2022-11-13T20:32:38.846Z,8.63
2022-11-13T20:35:25.380Z,8.82
2022-11-13T20:38:11.891Z,5.70
2022-11-13T20:40:58.438Z,5.65
2022-11-13T20:43:44.841Z,5.70
2022-11-13T20:46:31.710Z,6.57
2022-11-13T20:49:18.486Z,5.82
2022-11-13T20:52:05.811Z,7.43
2022-11-13T20:54:52.460Z,5.50
2022-11-13T20:57:41.092Z,6.28
2022-11-13T21:00:28.204Z,5.30
2022-11-13T21:03:14.698Z,5.72
2022-11-13T21:06:01.260Z,5.90
2022-11-13T21:08:48.609Z,5.15
2022-11-13T21:11:35.051Z,5.80
2022-11-13T21:14:21.469Z,5.88
2022-11-13T21:17:07.843Z,6.72
2022-11-13T21:19:57.514Z,5.50
2022-11-13T21:22:44.394Z,4.85
2022-11-13T21:25:31.789Z,5.22
2022-11-13T21:28:23.418Z,5.00
2022-11-13T21:31:21.631Z,4.88
2022-11-13T21:34:10.527Z,5.18
2022-11-13T21:36:56.940Z,4.97
2022-11-13T21:39:43.953Z,4.93
2022-11-13T21:42:31.074Z,5.13
2022-11-13T21:45:17.414Z,4.60
2022-11-13T21:48:03.855Z,5.38
2022-11-13T21:50:50.386Z,5.03
2022-11-13T21:53:37.168Z,4.35
2022-11-13T21:56:25.170Z,3.42
2022-11-13T21:59:11.858Z,3.72
2022-11-13T22:01:59.188Z,3.67
2022-11-13T22:04:45.714Z,3.25
2022-11-13T22:07:32.073Z,3.35
2022-11-13T22:10:18.980Z,3.22
2022-11-13T22:13:05.288Z,4.18
2022-11-13T22:15:51.953Z,2.92
2022-11-13T22:18:38.819Z,3.00
2022-11-13T22:21:26.885Z,2.97
2022-11-13T22:24:14.754Z,3.55
2022-11-13T22:27:01.514Z,3.17
2022-11-13T22:29:47.802Z,2.72
2022-11-13T22:32:34.262Z,2.90
2022-11-13T22:35:20.741Z,2.97
2022-11-13T22:38:07.390Z,3.00
2022-11-13T22:40:53.977Z,3.28
2022-11-13T22:43:42.396Z,2.58
2022-11-13T22:46:31.640Z,2.72
2022-11-13T22:49:18.293Z,2.35
2022-11-13T22:52:04.566Z,3.50
2022-11-13T22:54:51.045Z,2.30
2022-11-13T22:57:37.359Z,3.05
2022-11-13T23:00:23.896Z,1.67
2022-11-13T23:03:10.140Z,1.80
2022-11-13T23:05:56.911Z,1.83
2022-11-13T23:08:43.773Z,2.97
2022-11-13T23:11:32.428Z,1.98
2022-11-13T23:14:19.073Z,2.45
2022-11-13T23:17:05.515Z,2.05
2022-11-13T23:19:51.995Z,3.05
2022-11-13T23:22:38.312Z,2.80
2022-11-13T23:25:25.064Z,1.85
2022-11-13T23:28:11.657Z,1.60
2022-11-13T23:30:58.258Z,1.77
2022-11-13T23:33:45.216Z,2.53
2022-11-13T23:36:31.574Z,2.35
2022-11-13T23:39:17.847Z,2.05
2022-11-13T23:42:04.234Z,1.92
2022-11-13T23:44:50.679Z,2.00
2022-11-13T23:47:36.880Z,3.05
2022-11-13T23:50:23.684Z,2.13
2022-11-13T23:53:10.222Z,1.63
2022-11-13T23:55:56.636Z,1.58
2022-11-13T23:58:42.939Z,1.67
